Time;durP1;ratioP1;P1;durP2;ratioP2;P2;SDS_P1;SDS_P2;PMS_P1;PMS_P2;Temp;Humidity;BMP_temperature;BMP_pressure;BME280_temperature;BME280_humidity;BME280_pressure;Samples;Min_cycle;Max_cycle;Signal;HPM_P1;HPM_P2
2023/12/01 00:00:32;;;;;;;0.70;0.70;;;-6.00;99.90;;;;;;5070331;28;20209;-72
2023/12/01 00:02:58;;;;;;;0.90;0.90;;;-6.00;99.90;;;;;;5070641;28;20208;-73
2023/12/01 00:05:24;;;;;;;0.83;0.83;;;-6.00;99.90;;;;;;5070603;28;20291;-72
2023/12/01 00:07:50;;;;;;;0.90;0.90;;;-6.00;99.90;;;;;;5071649;28;20246;-73
2023/12/01 00:10:15;;;;;;;0.90;0.90;;;-6.10;99.90;;;;;;5071782;28;20200;-73
2023/12/01 00:12:42;;;;;;;0.83;0.83;;;-6.10;99.90;;;;;;5070642;28;20200;-73
2023/12/01 00:15:08;;;;;;;0.80;0.80;;;-6.10;99.90;;;;;;5071444;28;20609;-73
2023/12/01 00:17:34;;;;;;;0.90;0.90;;;-6.20;99.90;;;;;;5069946;28;20283;-73
2023/12/01 00:20:00;;;;;;;0.70;0.70;;;-6.20;99.90;;;;;;5072143;28;20627;-72
2023/12/01 00:22:26;;;;;;;0.90;0.90;;;-6.20;99.90;;;;;;5071035;28;20622;-72
2023/12/01 00:24:52;;;;;;;0.80;0.80;;;-6.20;99.90;;;;;;5070294;28;20200;-73
2023/12/01 00:27:17;;;;;;;0.80;0.80;;;-6.20;99.90;;;;;;5071245;28;20236;-72
2023/12/01 00:29:44;;;;;;;0.90;0.90;;;-6.20;99.90;;;;;;5071228;28;20200;-72
2023/12/01 00:32:09;;;;;;;0.80;0.80;;;-6.30;99.90;;;;;;5071269;28;20231;-71
2023/12/01 00:34:35;;;;;;;0.80;0.80;;;-6.20;99.90;;;;;;5069783;28;20232;-72
2023/12/01 00:37:01;;;;;;;0.90;0.90;;;-6.30;99.90;;;;;;5070996;28;20204;-73
2023/12/01 00:39:27;;;;;;;0.70;0.70;;;-6.30;99.90;;;;;;5071122;28;20193;-73
2023/12/01 00:41:53;;;;;;;0.80;0.80;;;-6.40;99.90;;;;;;5071196;28;20292;-72
2023/12/01 00:44:18;;;;;;;0.90;0.90;;;-6.40;99.90;;;;;;5070936;28;20308;-72
2023/12/01 00:46:44;;;;;;;0.93;0.93;;;-6.40;99.90;;;;;;5070845;28;20201;-72
2023/12/01 00:49:11;;;;;;;0.90;0.90;;;-6.40;99.90;;;;;;5062969;28;20235;-73
2023/12/01 00:51:41;;;;;;;0.70;0.70;;;-6.40;99.90;;;;;;5070684;28;20684;-72
2023/12/01 00:54:07;;;;;;;0.90;0.90;;;-6.50;99.90;;;;;;5071028;28;20196;-73
2023/12/01 00:56:33;;;;;;;0.87;0.87;;;-6.50;99.90;;;;;;5070956;28;20188;-74
2023/12/01 00:58:58;;;;;;;0.90;0.90;;;-6.40;99.90;;;;;;5070802;28;20201;-74
2023/12/01 01:01:24;;;;;;;0.80;0.80;;;-6.40;99.90;;;;;;5069264;28;20334;-74
2023/12/01 01:03:50;;;;;;;0.83;0.83;;;-6.40;99.90;;;;;;5069258;28;20212;-72
2023/12/01 01:06:15;;;;;;;1.00;1.00;;;-6.40;99.90;;;;;;5069441;28;20205;-74
2023/12/01 01:08:41;;;;;;;0.80;0.80;;;-6.40;99.90;;;;;;5070454;28;20216;-74
2023/12/01 01:11:06;;;;;;;0.73;0.73;;;-6.40;99.90;;;;;;5070837;28;20189;-73
2023/12/01 01:13:33;;;;;;;0.77;0.77;;;-6.40;99.90;;;;;;5069139;28;20216;-66
2023/12/01 01:15:59;;;;;;;0.80;0.80;;;-6.30;99.90;;;;;;5070442;28;20203;-67
2023/12/01 01:18:25;;;;;;;0.80;0.80;;;-6.20;99.90;;;;;;5069947;28;20193;-67
2023/12/01 01:20:51;;;;;;;0.80;0.80;;;-6.10;99.90;;;;;;5070217;28;20204;-66
2023/12/01 01:23:17;;;;;;;0.95;0.95;;;-6.10;99.90;;;;;;5070136;28;20588;-68
2023/12/01 01:25:42;;;;;;;0.80;0.80;;;-6.10;99.90;;;;;;5069989;28;20275;-67
2023/12/01 01:28:08;;;;;;;0.80;0.80;;;-6.00;99.90;;;;;;5070414;28;20216;-67
2023/12/01 01:30:34;;;;;;;0.90;0.90;;;-6.00;99.90;;;;;;5069892;28;20280;-68
2023/12/01 01:33:00;;;;;;;0.80;0.80;;;-6.00;99.90;;;;;;5070068;28;20211;-66
2023/12/01 01:35:25;;;;;;;0.83;0.83;;;-6.00;99.90;;;;;;5069856;28;20266;-66
2023/12/01 01:37:51;;;;;;;1.37;1.27;;;-6.00;99.90;;;;;;5069513;28;20228;-67
2023/12/01 01:40:17;;;;;;;0.80;0.80;;;-6.00;99.90;;;;;;5069864;28;20203;-67
2023/12/01 01:42:43;;;;;;;0.87;0.87;;;-6.00;99.90;;;;;;5069892;28;20208;-67
2023/12/01 01:45:09;;;;;;;0.85;0.85;;;-6.00;99.90;;;;;;5068054;28;20204;-68
2023/12/01 01:47:36;;;;;;;0.90;0.90;;;-6.10;99.90;;;;;;5069818;28;20299;-67
2023/12/01 01:50:03;;;;;;;0.80;0.80;;;-6.10;99.90;;;;;;5069776;28;20671;-66
2023/12/01 01:52:29;;;;;;;0.87;0.87;;;-6.20;99.90;;;;;;5069603;28;20224;-67
2023/12/01 01:54:55;;;;;;;0.80;0.80;;;-6.20;99.90;;;;;;5069889;28;20197;-69
2023/12/01 01:57:22;;;;;;;0.80;0.80;;;-6.20;99.90;;;;;;5069465;28;20243;-67
2023/12/01 01:59:48;;;;;;;0.80;0.80;;;-6.20;99.90;;;;;;5069933;28;20235;-66
2023/12/01 02:02:14;;;;;;;0.80;0.80;;;-6.20;99.90;;;;;;5069326;28;20570;-67
2023/12/01 02:04:40;;;;;;;1.00;1.00;;;-6.20;99.90;;;;;;5069328;28;20215;-69
2023/12/01 02:07:08;;;;;;;0.80;0.80;;;-6.20;99.90;;;;;;5069038;28;20217;-67
2023/12/01 02:09:34;;;;;;;0.80;0.80;;;-6.30;99.90;;;;;;5067461;28;20220;-66
2023/12/01 02:12:00;;;;;;;0.80;0.80;;;-6.20;99.90;;;;;;5067898;28;20201;-68
2023/12/01 02:14:26;;;;;;;1.20;1.20;;;-6.30;99.90;;;;;;5067627;28;20577;-67
2023/12/01 02:16:52;;;;;;;0.80;0.80;;;-6.30;99.90;;;;;;5049017;28;20398;-67
2023/12/01 02:19:18;;;;;;;0.90;0.90;;;-6.30;99.90;;;;;;5048224;28;20209;-69
2023/12/01 02:21:47;;;;;;;0.90;0.90;;;-6.30;99.90;;;;;;5048019;28;20213;-66
2023/12/01 02:24:13;;;;;;;0.90;0.90;;;-6.30;99.90;;;;;;5069424;28;20196;-67
2023/12/01 02:26:39;;;;;;;0.80;0.80;;;-6.30;99.90;;;;;;5068958;28;20199;-68
2023/12/01 02:29:06;;;;;;;0.80;0.80;;;-6.40;99.90;;;;;;5068790;28;20262;-67
2023/12/01 02:31:32;;;;;;;0.90;0.90;;;-6.30;99.90;;;;;;5068631;28;20224;-67
2023/12/01 02:33:58;;;;;;;0.83;0.83;;;-6.40;99.90;;;;;;5069181;28;20197;-67
2023/12/01 02:36:24;;;;;;;0.90;0.90;;;-6.40;99.90;;;;;;5068602;28;20456;-66
2023/12/01 02:38:50;;;;;;;0.80;0.80;;;-6.40;99.90;;;;;;5068970;28;20728;-68
2023/12/01 02:41:17;;;;;;;0.80;0.80;;;-6.40;99.90;;;;;;5060556;28;20209;-67
2023/12/01 02:43:46;;;;;;;0.83;0.83;;;-6.40;99.90;;;;;;5068744;28;20652;-70
2023/12/01 02:46:12;;;;;;;0.90;0.90;;;-6.50;99.90;;;;;;5068836;28;20557;-71
2023/12/01 02:48:41;;;;;;;0.80;0.80;;;-6.50;99.90;;;;;;5068791;28;20647;-67
2023/12/01 02:51:08;;;;;;;0.90;0.90;;;-6.50;99.90;;;;;;5068596;28;20664;-67
2023/12/01 02:53:34;;;;;;;0.80;0.80;;;-6.50;99.90;;;;;;5068745;28;20196;-67
2023/12/01 02:56:00;;;;;;;0.80;0.80;;;-6.50;99.90;;;;;;5067561;28;20205;-67
2023/12/01 02:58:26;;;;;;;1.00;1.00;;;-6.50;99.90;;;;;;5068538;28;20216;-67
2023/12/01 03:00:51;;;;;;;0.90;0.90;;;-6.50;99.90;;;;;;5049067;28;20197;-67
2023/12/01 03:03:17;;;;;;;0.90;0.90;;;-6.50;99.90;;;;;;5048680;28;20190;-66
2023/12/01 03:05:43;;;;;;;0.80;0.80;;;-6.50;99.90;;;;;;5048678;28;20197;-67
2023/12/01 03:08:08;;;;;;;0.87;0.87;;;-6.50;99.90;;;;;;5048989;28;20205;-67
2023/12/01 03:10:35;;;;;;;0.90;0.90;;;-6.50;99.90;;;;;;5048668;28;20198;-70
2023/12/01 03:13:01;;;;;;;0.90;0.90;;;-6.50;99.90;;;;;;5048540;28;20206;-68
2023/12/01 03:15:26;;;;;;;0.90;0.90;;;-6.50;99.90;;;;;;5048614;28;20662;-68
2023/12/01 03:17:52;;;;;;;0.80;0.80;;;-6.50;99.90;;;;;;5048567;28;20274;-69
2023/12/01 03:20:18;;;;;;;0.83;0.83;;;-6.50;99.90;;;;;;5067822;28;20259;-67
2023/12/01 03:22:50;;;;;;;0.80;0.80;;;-6.60;99.90;;;;;;5068530;28;20284;-67
2023/12/01 03:25:16;;;;;;;1.07;1.07;;;-6.60;99.90;;;;;;5067083;28;20232;-68
2023/12/01 03:27:46;;;;;;;0.90;0.90;;;-6.50;99.90;;;;;;5068406;28;20239;-67
2023/12/01 03:30:15;;;;;;;0.90;0.90;;;-6.60;99.90;;;;;;5068547;28;20196;-67
2023/12/01 03:32:49;;;;;;;0.90;0.90;;;-6.60;99.90;;;;;;5068893;28;20785;-68
2023/12/01 03:35:17;;;;;;;0.87;0.87;;;-6.60;99.90;;;;;;5068532;28;20292;-68
2023/12/01 03:37:44;;;;;;;0.87;0.87;;;-6.60;99.90;;;;;;5062512;28;20280;-68
2023/12/01 03:40:13;;;;;;;0.83;0.83;;;-6.60;99.90;;;;;;5068302;28;20196;-68
2023/12/01 03:42:46;;;;;;;0.80;0.80;;;-6.50;99.90;;;;;;5068177;28;20680;-68
2023/12/01 03:45:12;;;;;;;1.00;1.00;;;-6.50;99.90;;;;;;5068459;28;20696;-68
2023/12/01 03:47:39;;;;;;;0.80;0.80;;;-6.50;99.90;;;;;;5066770;28;20212;-69
2023/12/01 03:50:05;;;;;;;0.90;0.90;;;-6.50;99.90;;;;;;5072076;28;20535;-68
2023/12/01 03:52:31;;;;;;;0.90;0.90;;;-6.50;99.90;;;;;;5071791;28;20225;-69
2023/12/01 03:55:01;;;;;;;0.80;0.80;;;-6.50;99.90;;;;;;5071841;28;20671;-68
2023/12/01 03:57:27;;;;;;;0.80;0.80;;;-6.50;99.90;;;;;;5071905;28;20757;-68
2023/12/01 03:59:54;;;;;;;0.77;0.77;;;-6.50;99.90;;;;;;5072424;28;20206;-68
2023/12/01 04:02:21;;;;;;;0.90;0.90;;;-6.50;99.90;;;;;;5061249;28;20201;-68
2023/12/01 04:04:49;;;;;;;0.90;0.90;;;-6.40;99.90;;;;;;5071526;28;20204;-68
2023/12/01 04:07:14;;;;;;;0.80;0.80;;;-6.50;99.90;;;;;;5070250;28;20644;-68
2023/12/01 04:09:41;;;;;;;0.80;0.80;;;-6.40;99.90;;;;;;5070148;28;20192;-68
2023/12/01 04:12:06;;;;;;;0.90;0.90;;;-6.40;99.90;;;;;;5071629;28;20287;-68
2023/12/01 04:14:32;;;;;;;0.60;0.60;;;-6.40;99.90;;;;;;5071437;28;20855;-68
2023/12/01 04:16:58;;;;;;;1.00;1.00;;;-6.40;99.90;;;;;;5071513;28;20188;-68
2023/12/01 04:19:24;;;;;;;0.90;0.90;;;-6.40;99.90;;;;;;5071647;28;20203;-69
2023/12/01 04:21:49;;;;;;;0.90;0.90;;;-6.40;99.90;;;;;;5070128;28;20201;-66
2023/12/01 04:24:15;;;;;;;1.00;1.00;;;-6.40;99.90;;;;;;5071803;28;20246;-73
2023/12/01 04:26:41;;;;;;;0.90;0.90;;;-6.40;99.90;;;;;;5071350;28;20734;-72
2023/12/01 04:29:06;;;;;;;0.90;0.90;;;-6.40;99.90;;;;;;5071293;28;20212;-72
2023/12/01 04:31:32;;;;;;;1.50;1.40;;;-6.40;99.90;;;;;;5071224;28;20223;-72
2023/12/01 04:33:57;;;;;;;0.90;0.90;;;-6.40;99.90;;;;;;5071103;28;20210;-71
2023/12/01 04:36:23;;;;;;;0.80;0.80;;;-6.40;99.90;;;;;;5071029;28;20559;-72
2023/12/01 04:38:49;;;;;;;0.90;0.90;;;-6.40;99.90;;;;;;5069559;28;20287;-72
2023/12/01 04:41:14;;;;;;;0.83;0.83;;;-6.40;99.90;;;;;;5071101;28;20204;-73
2023/12/01 04:43:40;;;;;;;0.80;0.80;;;-6.40;99.90;;;;;;5071182;28;20201;-67
2023/12/01 04:46:06;;;;;;;0.80;0.80;;;-6.40;99.90;;;;;;5070928;28;20196;-69
2023/12/01 04:48:32;;;;;;;0.70;0.70;;;-6.40;99.90;;;;;;5069268;28;20215;-67
2023/12/01 04:50:58;;;;;;;0.93;0.93;;;-6.40;99.90;;;;;;5069458;28;20287;-67
2023/12/01 04:53:24;;;;;;;0.90;0.90;;;-6.40;99.90;;;;;;5070777;28;20731;-68
2023/12/01 04:55:49;;;;;;;0.80;0.80;;;-6.40;99.90;;;;;;5070943;28;20197;-68
2023/12/01 04:58:15;;;;;;;0.80;0.80;;;-6.40;99.90;;;;;;5070950;28;20577;-67
2023/12/01 05:00:41;;;;;;;0.90;0.90;;;-6.40;99.90;;;;;;5070359;28;20675;-69
2023/12/01 05:03:08;;;;;;;1.00;1.00;;;-6.40;99.90;;;;;;5069651;28;20197;-67
2023/12/01 05:05:40;;;;;;;0.83;0.83;;;-6.50;99.90;;;;;;5050799;28;20193;-67
2023/12/01 05:08:08;;;;;;;0.80;0.80;;;-6.50;99.90;;;;;;5050261;28;20205;-69
2023/12/01 05:10:35;;;;;;;0.80;0.80;;;-6.50;99.90;;;;;;5051347;28;20562;-66
2023/12/01 05:13:04;;;;;;;0.63;0.63;;;-6.60;99.90;;;;;;5071050;28;20220;-69
2023/12/01 05:15:32;;;;;;;0.90;0.90;;;-6.60;99.90;;;;;;5070179;28;20195;-67
2023/12/01 05:17:59;;;;;;;0.80;0.80;;;-6.60;99.90;;;;;;5070410;28;20196;-67
2023/12/01 05:20:27;;;;;;;0.90;0.90;;;-6.60;99.90;;;;;;5070226;28;20207;-67
2023/12/01 05:22:55;;;;;;;1.00;1.00;;;-6.60;99.90;;;;;;5070598;28;20197;-68
2023/12/01 05:25:21;;;;;;;0.90;0.90;;;-6.60;99.90;;;;;;5068620;28;20205;-67
2023/12/01 05:27:53;;;;;;;0.90;0.90;;;-6.70;99.90;;;;;;5070083;28;20581;-70
2023/12/01 05:30:20;;;;;;;0.93;0.93;;;-6.70;99.90;;;;;;5061747;28;20571;-70
2023/12/01 05:32:48;;;;;;;0.70;0.70;;;-6.70;99.90;;;;;;5069986;28;20189;-69
2023/12/01 05:35:15;;;;;;;0.87;0.87;;;-6.70;99.90;;;;;;5070099;28;20189;-66
2023/12/01 05:37:46;;;;;;;0.87;0.87;;;-6.70;99.90;;;;;;5069503;28;20200;-67
2023/12/01 05:40:14;;;;;;;2.07;1.53;;;-6.80;99.90;;;;;;5069820;28;20193;-67
2023/12/01 05:42:41;;;;;;;0.80;0.80;;;-6.80;99.90;;;;;;5069810;28;20672;-68
2023/12/01 05:45:11;;;;;;;0.90;0.90;;;-6.80;99.90;;;;;;5068602;28;20223;-68
2023/12/01 05:47:47;;;;;;;0.80;0.80;;;-6.80;99.90;;;;;;5069843;28;20205;-68
2023/12/01 05:50:23;;;;;;;1.07;1.00;;;-6.90;99.90;;;;;;5069872;28;20272;-67
2023/12/01 05:52:51;;;;;;;0.80;0.80;;;-6.90;99.90;;;;;;5069542;28;20730;-68
2023/12/01 05:55:19;;;;;;;0.70;0.70;;;-6.90;99.90;;;;;;5069929;28;20713;-73
2023/12/01 05:57:47;;;;;;;0.90;0.90;;;-6.90;99.90;;;;;;5069831;28;20265;-72
2023/12/01 06:00:15;;;;;;;0.80;0.80;;;-7.00;99.90;;;;;;5069583;28;20683;-72
2023/12/01 06:02:45;;;;;;;0.80;0.80;;;-7.00;99.90;;;;;;5069305;28;20204;-72
2023/12/01 06:05:11;;;;;;;0.70;0.70;;;-7.10;99.90;;;;;;5069586;28;20228;-73
2023/12/01 06:07:40;;;;;;;0.90;0.90;;;-7.10;99.90;;;;;;5067638;28;20212;-72
2023/12/01 06:10:06;;;;;;;0.70;0.70;;;-7.10;99.90;;;;;;5067981;28;20685;-72
2023/12/01 06:12:33;;;;;;;0.80;0.80;;;-7.10;99.90;;;;;;5068341;28;20219;-72
2023/12/01 06:14:59;;;;;;;0.90;0.90;;;-7.20;99.90;;;;;;5069359;28;20672;-72
2023/12/01 06:17:24;;;;;;;0.90;0.90;;;-7.30;99.90;;;;;;5068931;28;20193;-73
2023/12/01 06:19:50;;;;;;;0.90;0.90;;;-7.30;99.90;;;;;;5069338;28;20192;-73
2023/12/01 06:22:16;;;;;;;0.90;0.90;;;-7.30;99.90;;;;;;5069323;28;20193;-72
2023/12/01 06:24:42;;;;;;;0.93;0.93;;;-7.30;99.90;;;;;;5066478;28;20246;-73
2023/12/01 06:27:07;;;;;;;0.90;0.90;;;-7.30;99.90;;;;;;5061660;28;20307;-71
2023/12/01 06:29:34;;;;;;;0.80;0.80;;;-7.40;99.90;;;;;;5068926;28;20723;-71
2023/12/01 06:32:00;;;;;;;0.80;0.80;;;-7.50;99.90;;;;;;5067737;28;20211;-73
2023/12/01 06:34:26;;;;;;;0.87;0.87;;;-7.60;99.90;;;;;;5068822;28;20197;-73
2023/12/01 06:36:52;;;;;;;0.90;0.90;;;-7.60;99.90;;;;;;5067248;28;20215;-72
2023/12/01 06:39:17;;;;;;;0.80;0.80;;;-7.70;99.90;;;;;;5067526;28;20663;-72
2023/12/01 06:41:43;;;;;;;0.90;0.90;;;-7.70;99.90;;;;;;5068852;28;20200;-72
2023/12/01 06:44:09;;;;;;;0.90;0.90;;;-7.80;99.90;;;;;;5068992;28;20569;-71
2023/12/01 06:46:35;;;;;;;1.00;1.00;;;-7.80;99.90;;;;;;5068860;28;20208;-72
2023/12/01 06:49:01;;;;;;;0.90;0.90;;;-7.70;99.90;;;;;;5068874;28;20298;-73
2023/12/01 06:51:27;;;;;;;0.80;0.80;;;-7.70;99.90;;;;;;5068762;28;20232;-71
2023/12/01 06:53:52;;;;;;;0.70;0.70;;;-7.70;99.90;;;;;;5068655;28;20613;-73
2023/12/01 06:56:18;;;;;;;0.80;0.80;;;-7.80;99.90;;;;;;5068434;28;20204;-73
2023/12/01 06:58:44;;;;;;;0.90;0.90;;;-7.80;99.90;;;;;;5068759;28;20200;-73
2023/12/01 07:01:18;;;;;;;1.00;1.00;;;-7.80;99.90;;;;;;5068761;28;20204;-71
2023/12/01 07:03:44;;;;;;;0.80;0.80;;;-7.90;99.90;;;;;;5068838;28;20229;-73
2023/12/01 07:06:10;;;;;;;0.90;0.90;;;-7.90;99.90;;;;;;5068810;28;20204;-72
2023/12/01 07:08:36;;;;;;;0.87;0.87;;;-7.90;99.90;;;;;;5068527;28;20295;-73
2023/12/01 07:11:03;;;;;;;0.90;0.90;;;-7.90;99.90;;;;;;5068851;28;20259;-73
2023/12/01 07:13:29;;;;;;;0.80;0.80;;;-7.90;99.90;;;;;;5068921;28;20632;-71
2023/12/01 07:15:56;;;;;;;0.80;0.80;;;-7.90;99.90;;;;;;5068521;28;20231;-72
2023/12/01 07:18:21;;;;;;;0.90;0.90;;;-7.90;99.90;;;;;;5068205;28;20193;-72
2023/12/01 07:20:47;;;;;;;0.80;0.80;;;-8.00;99.90;;;;;;5067328;28;20208;-72
2023/12/01 07:23:13;;;;;;;0.90;0.90;;;-8.00;99.90;;;;;;5069309;28;20212;-72
2023/12/01 07:25:40;;;;;;;0.90;0.90;;;-8.00;99.90;;;;;;5072505;28;20249;-73
2023/12/01 07:28:08;;;;;;;0.80;0.80;;;-8.00;99.90;;;;;;5072403;28;20205;-72
2023/12/01 07:30:34;;;;;;;0.90;0.90;;;-7.90;99.90;;;;;;5070659;28;20281;-72
2023/12/01 07:33:03;;;;;;;0.90;0.90;;;-7.90;99.90;;;;;;5072803;28;20201;-71
2023/12/01 07:35:29;;;;;;;0.90;0.90;;;-7.90;99.90;;;;;;5071010;28;20640;-73
2023/12/01 07:37:55;;;;;;;0.90;0.90;;;-8.00;99.90;;;;;;5071883;28;20212;-72
2023/12/01 07:40:21;;;;;;;0.90;0.90;;;-8.00;99.90;;;;;;5072373;28;20217;-71
2023/12/01 07:42:51;;;;;;;0.90;0.90;;;-8.00;99.90;;;;;;5072346;28;20200;-72
2023/12/01 07:45:18;;;;;;;0.80;0.80;;;-8.00;99.90;;;;;;5070941;28;20627;-72
2023/12/01 07:47:49;;;;;;;0.80;0.80;;;-8.00;99.90;;;;;;5072163;28;20586;-71
2023/12/01 07:50:15;;;;;;;1.10;1.10;;;-8.00;99.90;;;;;;5070475;28;20208;-71
2023/12/01 07:52:45;;;;;;;0.90;0.90;;;-8.00;99.90;;;;;;5071705;28;20584;-73
2023/12/01 07:55:11;;;;;;;0.90;0.90;;;-8.00;99.90;;;;;;5072125;28;20217;-72
2023/12/01 07:57:37;;;;;;;0.90;0.90;;;-8.00;99.90;;;;;;5072173;28;20662;-72
2023/12/01 08:00:05;;;;;;;0.90;0.90;;;-7.90;99.90;;;;;;5071891;28;20291;-73
2023/12/01 08:02:32;;;;;;;0.80;0.80;;;-7.90;99.90;;;;;;5071988;28;20192;-72
2023/12/01 08:05:00;;;;;;;0.80;0.80;;;-7.90;99.90;;;;;;5072185;28;20624;-73
2023/12/01 08:07:25;;;;;;;0.80;0.80;;;-7.80;99.90;;;;;;5071574;28;20215;-72
2023/12/01 08:09:53;;;;;;;0.90;0.90;;;-7.80;99.90;;;;;;5071894;28;20648;-70
2023/12/01 08:12:19;;;;;;;0.90;0.90;;;-7.80;99.90;;;;;;5071670;28;20195;-72
2023/12/01 08:14:45;;;;;;;0.90;0.90;;;-7.80;99.90;;;;;;5071708;28;20567;-69
2023/12/01 08:17:10;;;;;;;1.30;1.20;;;-7.80;99.90;;;;;;5071351;28;20207;-67
2023/12/01 08:19:36;;;;;;;0.90;0.90;;;-7.70;99.90;;;;;;5071459;28;20197;-68
2023/12/01 08:22:02;;;;;;;0.90;0.90;;;-7.70;99.90;;;;;;5071751;28;20272;-68
2023/12/01 08:24:27;;;;;;;0.90;0.90;;;-7.70;99.90;;;;;;5071404;28;20311;-68
2023/12/01 08:26:53;;;;;;;0.83;0.83;;;-7.60;99.90;;;;;;5070167;28;20682;-68
2023/12/01 08:29:18;;;;;;;0.90;0.90;;;-7.60;99.90;;;;;;5069800;28;20610;-68
2023/12/01 08:31:45;;;;;;;1.00;1.00;;;-7.60;99.90;;;;;;5071489;28;20242;-69
2023/12/01 08:34:12;;;;;;;0.90;0.90;;;-7.60;99.90;;;;;;5072200;28;20275;-68
2023/12/01 08:36:37;;;;;;;0.90;0.90;;;-7.60;99.90;;;;;;5071127;28;20250;-72
2023/12/01 08:39:04;;;;;;;0.90;0.90;;;-7.60;99.90;;;;;;5071402;28;20205;-70
2023/12/01 08:41:30;;;;;;;0.83;0.83;;;-7.60;99.90;;;;;;5071246;28;20204;-68
2023/12/01 08:43:56;;;;;;;0.90;0.90;;;-7.50;99.90;;;;;;5071061;28;20604;-70
2023/12/01 08:46:22;;;;;;;0.80;0.80;;;-7.50;99.90;;;;;;5070849;28;20193;-69
2023/12/01 08:48:47;;;;;;;0.90;0.90;;;-7.40;99.90;;;;;;5062934;28;20658;-68
2023/12/01 08:51:13;;;;;;;1.00;1.00;;;-7.40;99.90;;;;;;5050789;28;20282;-70
2023/12/01 08:53:39;;;;;;;0.90;0.90;;;-7.40;99.90;;;;;;5050843;28;20213;-70
2023/12/01 08:56:05;;;;;;;0.80;0.80;;;-7.30;99.90;;;;;;5055730;28;20201;-69
2023/12/01 08:58:30;;;;;;;0.90;0.90;;;-7.30;99.90;;;;;;5070714;28;20284;-68
2023/12/01 09:00:56;;;;;;;0.83;0.83;;;-7.30;99.90;;;;;;5070909;28;20724;-68
2023/12/01 09:03:22;;;;;;;0.87;0.87;;;-7.30;99.90;;;;;;5070657;28;20230;-70
2023/12/01 09:05:48;;;;;;;0.90;0.90;;;-7.30;99.90;;;;;;5070669;28;20676;-69
2023/12/01 09:08:15;;;;;;;0.90;0.90;;;-7.20;99.90;;;;;;5070412;28;20691;-70
2023/12/01 09:10:41;;;;;;;0.90;0.90;;;-7.20;99.90;;;;;;5070419;28;20197;-70
2023/12/01 09:13:08;;;;;;;0.90;0.90;;;-7.10;99.90;;;;;;5069407;28;20205;-69
2023/12/01 09:15:33;;;;;;;0.93;0.93;;;-7.10;99.90;;;;;;5060700;28;20201;-68
2023/12/01 09:17:59;;;;;;;1.53;1.40;;;-7.10;99.90;;;;;;5070548;28;20200;-69
2023/12/01 09:20:25;;;;;;;0.90;0.90;;;-7.00;99.90;;;;;;5070386;28;20216;-69
2023/12/01 09:22:50;;;;;;;2.63;2.40;;;-6.90;99.90;;;;;;5070283;28;20211;-70
2023/12/01 09:25:16;;;;;;;0.90;0.90;;;-6.90;99.90;;;;;;5069351;28;20215;-74
2023/12/01 09:27:42;;;;;;;1.40;1.30;;;-6.90;99.90;;;;;;5068707;28;20676;-73
2023/12/01 09:30:13;;;;;;;0.90;0.90;;;-6.80;99.90;;;;;;5070016;28;20556;-73
2023/12/01 09:32:39;;;;;;;0.90;0.90;;;-6.90;99.90;;;;;;5069744;28;20200;-74
2023/12/01 09:35:05;;;;;;;0.90;0.90;;;-6.90;99.90;;;;;;5068705;28;20736;-72
2023/12/01 09:37:31;;;;;;;0.90;0.90;;;-6.90;99.90;;;;;;5069866;28;20771;-73
2023/12/01 09:39:57;;;;;;;0.90;0.90;;;-6.80;99.90;;;;;;5070450;28;20197;-72
2023/12/01 09:42:24;;;;;;;0.90;0.90;;;-6.80;99.90;;;;;;5069852;28;20289;-73
2023/12/01 09:44:53;;;;;;;0.90;0.90;;;-6.80;99.90;;;;;;5069889;28;20211;-73
2023/12/01 09:47:22;;;;;;;0.90;0.90;;;-6.80;99.90;;;;;;5068955;28;20208;-73
2023/12/01 09:49:49;;;;;;;0.80;0.80;;;-6.70;99.90;;;;;;5069875;28;20193;-74
2023/12/01 09:52:15;;;;;;;0.90;0.90;;;-6.70;99.90;;;;;;5069842;28;20662;-72
2023/12/01 09:54:41;;;;;;;0.90;0.90;;;-6.70;99.90;;;;;;5069472;28;20271;-72
2023/12/01 09:57:06;;;;;;;0.90;0.90;;;-6.70;99.90;;;;;;5068176;28;20207;-74
2023/12/01 09:59:36;;;;;;;0.90;0.90;;;-6.60;99.90;;;;;;5069406;28;20208;-73
2023/12/01 10:02:03;;;;;;;1.40;1.33;;;-6.60;99.90;;;;;;5069787;28;20282;-73
2023/12/01 10:04:32;;;;;;;1.17;1.17;;;-6.60;99.90;;;;;;5057186;28;20600;-74
2023/12/01 10:06:59;;;;;;;1.13;1.13;;;-6.50;99.90;;;;;;5081789;28;20771;-73
2023/12/01 10:09:32;;;;;;;0.90;0.90;;;-6.50;99.90;;;;;;5081544;28;20222;-73
2023/12/01 10:12:09;;;;;;;1.00;1.00;;;-6.50;99.90;;;;;;5069024;28;20561;-74
2023/12/01 10:14:41;;;;;;;0.80;0.80;;;-6.50;99.90;;;;;;5069281;28;20204;-73
2023/12/01 10:17:09;;;;;;;0.80;0.80;;;-6.40;99.90;;;;;;5069535;28;20193;-73
2023/12/01 10:19:49;;;;;;;0.90;0.90;;;-6.40;99.90;;;;;;5069192;28;20338;-74
2023/12/01 10:22:19;;;;;;;1.00;1.00;;;-6.40;99.90;;;;;;5069541;28;20436;-74
2023/12/01 10:24:54;;;;;;;1.27;1.17;;;-6.40;99.90;;;;;;5069657;28;20192;-73
2023/12/01 10:27:20;;;;;;;0.90;0.90;;;-6.40;99.90;;;;;;5069076;28;20686;-74
2023/12/01 10:29:47;;;;;;;1.10;1.10;;;-6.40;99.90;;;;;;5069213;28;20216;-72
2023/12/01 10:32:14;;;;;;;0.90;0.90;;;-6.40;99.90;;;;;;5067782;28;20565;-74
2023/12/01 10:34:46;;;;;;;0.93;0.93;;;-6.40;99.90;;;;;;5069310;28;20684;-74
2023/12/01 10:37:12;;;;;;;0.90;0.90;;;-6.30;99.90;;;;;;5068778;28;20223;-74
2023/12/01 10:39:40;;;;;;;0.90;0.90;;;-6.20;99.90;;;;;;5067581;28;20204;-74
2023/12/01 10:42:09;;;;;;;0.90;0.90;;;-6.10;99.90;;;;;;5055839;28;20635;-74
2023/12/01 10:44:36;;;;;;;0.97;0.97;;;-6.10;99.90;;;;;;5049060;28;20656;-75
2023/12/01 10:47:02;;;;;;;1.40;1.30;;;-6.00;99.90;;;;;;5048898;28;20235;-75
2023/12/01 10:49:29;;;;;;;1.10;1.10;;;-5.90;99.90;;;;;;5059768;28;20225;-74
2023/12/01 10:51:56;;;;;;;0.80;0.80;;;-5.80;99.90;;;;;;5068713;28;20282;-75
2023/12/01 10:54:24;;;;;;;0.75;0.75;;;-5.70;99.90;;;;;;5068846;28;20220;-68
2023/12/01 10:57:11;;;;;;;0.90;0.90;;;-5.60;99.90;;;;;;5067935;28;20204;-68
2023/12/01 10:59:38;;;;;;;0.82;0.82;;;-5.50;99.90;;;;;;5066666;28;20200;-68
2023/12/01 11:02:05;;;;;;;0.98;0.98;;;-5.40;99.90;;;;;;5048656;28;20201;-68
2023/12/01 11:04:33;;;;;;;0.90;0.90;;;-5.20;99.90;;;;;;5047078;28;20228;-67
2023/12/01 11:07:15;;;;;;;0.80;0.80;;;-5.20;99.90;;;;;;5058040;28;20196;-66
2023/12/01 11:10:08;;;;;;;0.90;0.90;;;-5.10;99.90;;;;;;5068473;28;20224;-67
2023/12/01 11:12:51;;;;;;;0.90;0.90;;;-5.00;99.90;;;;;;5068632;28;20747;-66
2023/12/01 11:15:26;;;;;;;0.90;0.90;;;-5.00;99.90;;;;;;5067073;28;20820;-66
2023/12/01 11:17:52;;;;;;;0.90;0.90;;;-5.10;99.90;;;;;;5067020;28;20605;-66
2023/12/01 11:20:44;;;;;;;0.70;0.70;;;-5.00;99.90;;;;;;5068472;28;20745;-68
2023/12/01 11:23:13;;;;;;;0.83;0.83;;;-5.00;99.90;;;;;;5067266;28;20311;-68
2023/12/01 11:25:48;;;;;;;0.70;0.70;;;-5.00;99.90;;;;;;5068234;28;20201;-67
2023/12/01 11:28:37;;;;;;;0.80;0.80;;;-5.00;99.90;;;;;;5068474;28;20820;-66
2023/12/01 11:31:08;;;;;;;0.90;0.90;;;-5.00;99.90;;;;;;5068410;28;20193;-67
2023/12/01 11:33:47;;;;;;;1.10;1.00;;;-5.00;99.90;;;;;;5068476;28;20189;-68
2023/12/01 11:36:35;;;;;;;0.80;0.80;;;-5.00;99.90;;;;;;5068509;28;20189;-67
2023/12/01 11:39:15;;;;;;;0.90;0.90;;;-5.10;99.90;;;;;;5068110;28;20254;-67
2023/12/01 11:41:41;;;;;;;0.90;0.90;;;-5.00;99.90;;;;;;5068368;28;20199;-67
2023/12/01 11:44:17;;;;;;;0.90;0.90;;;-5.00;99.90;;;;;;5068387;28;20201;-69
2023/12/01 11:46:44;;;;;;;0.90;0.90;;;-5.00;99.90;;;;;;5048030;28;20193;-66
2023/12/01 11:49:10;;;;;;;1.00;1.00;;;-5.00;99.90;;;;;;5046565;28;20213;-69
2023/12/01 11:51:36;;;;;;;0.90;0.90;;;-5.00;99.90;;;;;;5048088;28;20701;-68
2023/12/01 11:54:03;;;;;;;0.82;0.82;;;-5.00;99.90;;;;;;5048062;28;20208;-67
2023/12/01 11:56:31;;;;;;;0.90;0.90;;;-5.00;99.90;;;;;;5047860;28;20189;-68
2023/12/01 11:58:57;;;;;;;0.90;0.90;;;-5.00;99.90;;;;;;5048119;28;20205;-68
2023/12/01 12:01:24;;;;;;;0.80;0.80;;;-5.00;99.90;;;;;;5046603;28;20326;-68
2023/12/01 12:03:56;;;;;;;0.63;0.63;;;-4.90;99.90;;;;;;5062142;28;20200;-68
2023/12/01 12:06:23;;;;;;;0.80;0.80;;;-4.80;99.90;;;;;;5067933;28;20553;-68
2023/12/01 12:08:53;;;;;;;0.70;0.70;;;-4.80;99.90;;;;;;5067878;28;20219;-70
2023/12/01 12:11:19;;;;;;;0.80;0.80;;;-4.80;99.90;;;;;;5071818;28;20196;-68
2023/12/01 12:13:54;;;;;;;0.85;0.85;;;-4.80;99.90;;;;;;5072174;28;20208;-68
2023/12/01 12:16:22;;;;;;;0.80;0.80;;;-4.80;99.90;;;;;;5071731;28;20226;-69
2023/12/01 12:18:50;;;;;;;0.80;0.80;;;-4.70;99.90;;;;;;5071700;28;20534;-69
2023/12/01 12:21:17;;;;;;;0.90;0.90;;;-4.80;99.90;;;;;;5071751;28;20201;-68
2023/12/01 12:23:43;;;;;;;0.90;0.90;;;-4.70;99.90;;;;;;5071305;28;20193;-68
2023/12/01 12:26:38;;;;;;;0.90;0.90;;;-4.60;99.90;;;;;;5069850;28;20265;-69
2023/12/01 12:29:05;;;;;;;0.90;0.90;;;-4.60;99.90;;;;;;5061510;28;20691;-68
2023/12/01 12:31:38;;;;;;;0.90;0.90;;;-4.50;99.90;;;;;;5071129;28;20225;-68
2023/12/01 12:34:09;;;;;;;0.90;0.90;;;-4.50;99.90;;;;;;5070916;28;20188;-68
2023/12/01 12:36:38;;;;;;;0.80;0.80;;;-4.60;99.90;;;;;;5070702;28;20278;-68
2023/12/01 12:39:06;;;;;;;0.60;0.60;;;-4.70;99.90;;;;;;5071036;28;20664;-69
2023/12/01 12:41:40;;;;;;;0.80;0.80;;;-4.80;99.90;;;;;;5070962;28;20236;-68
2023/12/01 12:44:11;;;;;;;0.73;0.73;;;-4.80;99.90;;;;;;5070851;28;20189;-68
2023/12/01 12:46:37;;;;;;;0.80;0.80;;;-4.80;99.90;;;;;;5071279;28;20316;-68
2023/12/01 12:49:06;;;;;;;0.80;0.80;;;-4.90;99.90;;;;;;5071217;28;20205;-71